Time;durP1;ratioP1;P1;durP2;ratioP2;P2;SDS_P1;SDS_P2;PMS_P1;PMS_P2;Temp;Humidity;BMP_temperature;BMP_pressure;BME280_temperature;BME280_humidity;BME280_pressure;Samples;Min_cycle;Max_cycle;Signal;HPM_P1;HPM_P2
2024/01/24 00:01:31;;;;;;;0.00;0.00;;;;;;;6.96;100.00;99587.69;5053517;28;20734;-53
2024/01/24 00:04:18;;;;;;;0.00;0.00;;;;;;;6.99;100.00;99590.19;5053335;28;20228;-53
2024/01/24 00:07:05;;;;;;;0.00;0.00;;;;;;;6.99;100.00;99592.81;5053622;28;20192;-53
2024/01/24 00:09:52;;;;;;;0.10;0.10;;;;;;;7.00;100.00;99587.47;5032512;28;20404;-53
2024/01/24 00:12:39;;;;;;;0.00;0.00;;;;;;;7.05;100.00;99588.16;5033718;28;20197;-53
2024/01/24 00:15:27;;;;;;;0.00;0.00;;;;;;;7.14;100.00;99586.88;5033686;28;20236;-53
2024/01/24 00:18:14;;;;;;;0.00;0.00;;;;;;;7.14;100.00;99576.34;5041274;28;20196;-54
2024/01/24 00:21:02;;;;;;;0.00;0.00;;;;;;;7.29;100.00;99567.78;5053584;28;20195;-53
2024/01/24 00:23:48;;;;;;;0.00;0.00;;;;;;;7.43;100.00;99565.41;5052184;28;20207;-53
2024/01/24 00:26:37;;;;;;;0.00;0.00;;;;;;;7.69;100.00;99573.88;5053018;28;20306;-53
2024/01/24 00:29:24;;;;;;;0.00;0.00;;;;;;;7.72;100.00;99547.38;5053140;28;20295;-53
2024/01/24 00:32:12;;;;;;;0.00;0.00;;;;;;;7.84;100.00;99559.16;5053168;28;20196;-53
2024/01/24 00:34:59;;;;;;;0.00;0.00;;;;;;;7.91;100.00;99548.28;5053165;28;20192;-53
2024/01/24 00:37:46;;;;;;;0.00;0.00;;;;;;;8.10;100.00;99552.66;5053109;28;20196;-53
2024/01/24 00:40:33;;;;;;;0.00;0.00;;;;;;;8.09;100.00;99558.84;5053185;28;20259;-53
2024/01/24 00:43:20;;;;;;;0.00;0.00;;;;;;;8.21;100.00;99568.84;5053148;28;20191;-52
2024/01/24 00:46:07;;;;;;;0.07;0.07;;;;;;;8.22;100.00;99550.31;5052846;28;20231;-53
2024/01/24 00:48:55;;;;;;;0.00;0.00;;;;;;;8.24;100.00;99532.59;5053076;28;20196;-53
2024/01/24 00:51:42;;;;;;;0.00;0.00;;;;;;;8.33;100.00;99532.16;5053006;28;20200;-53
2024/01/24 00:54:29;;;;;;;0.00;0.00;;;;;;;8.41;100.00;99525.69;5031727;28;20277;-53
2024/01/24 00:57:16;;;;;;;0.00;0.00;;;;;;;8.49;100.00;99516.47;5033028;28;20184;-53
2024/01/24 01:00:06;;;;;;;0.00;0.00;;;;;;;8.51;100.00;99519.88;5032964;28;20204;-53
2024/01/24 01:02:52;;;;;;;0.10;0.10;;;;;;;8.53;100.00;99507.44;5032811;28;20295;-53
2024/01/24 01:05:41;;;;;;;0.00;0.00;;;;;;;8.59;100.00;99496.59;5032744;28;20262;-53
2024/01/24 01:08:27;;;;;;;0.10;0.10;;;;;;;8.70;100.00;99500.47;5040505;28;20196;-53
2024/01/24 01:11:14;;;;;;;0.00;0.00;;;;;;;8.78;100.00;99492.97;5052739;28;20242;-53
2024/01/24 01:14:02;;;;;;;0.00;0.00;;;;;;;8.74;100.00;99487.03;5052750;28;20196;-53
2024/01/24 01:16:49;;;;;;;0.00;0.00;;;;;;;8.83;100.00;99488.34;5052856;28;20310;-53
2024/01/24 01:19:36;;;;;;;0.07;0.07;;;;;;;8.84;100.00;99488.25;5052627;28;20200;-53
2024/01/24 01:22:24;;;;;;;0.00;0.00;;;;;;;8.90;100.00;99476.53;5052648;28;20196;-53
2024/01/24 01:25:11;;;;;;;0.10;0.10;;;;;;;8.88;100.00;99454.63;5051286;28;20195;-53
2024/01/24 01:27:57;;;;;;;0.00;0.00;;;;;;;9.02;100.00;99467.94;5052567;28;20323;-53
2024/01/24 01:30:45;;;;;;;0.00;0.00;;;;;;;9.01;100.00;99476.81;5052438;28;20250;-52
2024/01/24 01:33:32;;;;;;;0.00;0.00;;;;;;;8.98;100.00;99474.34;5037334;28;20196;-54
2024/01/24 01:36:19;;;;;;;0.00;0.00;;;;;;;9.10;100.00;99472.84;5052418;28;20200;-53
2024/01/24 01:39:11;;;;;;;0.10;0.10;;;;;;;9.08;100.00;99480.00;5051108;28;20747;-53
2024/01/24 01:41:58;;;;;;;0.00;0.00;;;;;;;9.12;100.00;99470.97;5052173;28;20196;-53
2024/01/24 01:44:47;;;;;;;0.03;0.03;;;;;;;9.14;100.00;99448.78;5051935;28;20215;-53
2024/01/24 01:47:34;;;;;;;0.00;0.00;;;;;;;9.26;100.00;99427.94;5052023;28;20220;-53
2024/01/24 01:50:21;;;;;;;0.00;0.00;;;;;;;9.20;100.00;99423.00;5052361;28;20250;-53
2024/01/24 01:53:09;;;;;;;0.10;0.10;;;;;;;9.22;100.00;99419.31;5051072;28;20267;-53
2024/01/24 01:55:58;;;;;;;0.00;0.00;;;;;;;9.14;100.00;99417.09;5052088;28;20678;-53
2024/01/24 01:58:46;;;;;;;0.10;0.10;;;;;;;9.25;100.00;99408.56;5052223;28;20678;-52
2024/01/24 02:01:32;;;;;;;0.00;0.00;;;;;;;9.22;100.00;99418.47;5052213;28;20201;-53
2024/01/24 02:04:19;;;;;;;0.00;0.00;;;;;;;9.24;100.00;99408.66;5051736;28;20236;-53
2024/01/24 02:07:06;;;;;;;0.00;0.00;;;;;;;9.05;100.00;99387.66;5052142;28;20239;-52
2024/01/24 02:09:55;;;;;;;0.00;0.00;;;;;;;9.06;100.00;99398.16;5031414;28;20198;-53
2024/01/24 02:12:43;;;;;;;0.00;0.00;;;;;;;9.11;100.00;99409.34;5035756;28;20221;-53
2024/01/24 02:15:31;;;;;;;0.00;0.00;;;;;;;9.14;100.00;99427.66;5035814;28;20197;-53
2024/01/24 02:18:18;;;;;;;0.00;0.00;;;;;;;9.17;100.00;99426.66;5042471;28;20204;-53
2024/01/24 02:21:06;;;;;;;0.00;0.00;;;;;;;9.11;100.00;99411.13;5055705;28;20188;-53
2024/01/24 02:23:54;;;;;;;0.00;0.00;;;;;;;9.20;100.00;99404.50;5054280;28;20719;-53
2024/01/24 02:26:42;;;;;;;0.00;0.00;;;;;;;9.16;100.00;99398.50;5055330;28;20220;-53
2024/01/24 02:29:29;;;;;;;0.00;0.00;;;;;;;9.23;100.00;99394.59;5055340;28;20546;-53
2024/01/24 02:32:16;;;;;;;0.00;0.00;;;;;;;9.24;100.00;99395.44;5055404;28;20192;-53
2024/01/24 02:35:04;;;;;;;0.00;0.00;;;;;;;9.26;100.00;99396.22;5055411;28;20283;-53
2024/01/24 02:37:50;;;;;;;0.00;0.00;;;;;;;9.37;100.00;99393.84;5055015;28;20189;-54
2024/01/24 02:40:37;;;;;;;0.00;0.00;;;;;;;9.40;100.00;99388.38;5055238;28;20199;-53
2024/01/24 02:43:25;;;;;;;0.00;0.00;;;;;;;9.46;100.00;99388.06;5055520;28;20235;-53
2024/01/24 02:46:12;;;;;;;0.10;0.10;;;;;;;9.53;100.00;99388.53;5055028;28;20205;-53
2024/01/24 02:48:59;;;;;;;0.00;0.00;;;;;;;9.53;100.00;99380.63;5054844;28;20204;-53
2024/01/24 02:51:46;;;;;;;0.00;0.00;;;;;;;9.51;100.00;99379.84;5055099;28;20192;-53
2024/01/24 02:54:33;;;;;;;0.00;0.00;;;;;;;9.53;100.00;99391.19;5053736;28;20270;-53
2024/01/24 02:57:20;;;;;;;0.10;0.10;;;;;;;9.56;100.00;99369.88;5054936;28;20262;-53
2024/01/24 03:00:10;;;;;;;0.00;0.00;;;;;;;9.66;100.00;99379.00;5034954;28;20205;-53
2024/01/24 03:02:57;;;;;;;0.00;0.00;;;;;;;9.64;100.00;99352.63;5034971;28;20290;-53
2024/01/24 03:05:44;;;;;;;0.10;0.10;;;;;;;9.70;100.00;99360.22;5035061;28;20204;-52
2024/01/24 03:08:31;;;;;;;0.10;0.10;;;;;;;9.66;100.00;99337.53;5041058;28;20195;-53
2024/01/24 03:11:18;;;;;;;0.10;0.10;;;;;;;9.58;100.00;99333.63;5054489;28;20268;-53
2024/01/24 03:14:05;;;;;;;0.00;0.00;;;;;;;9.56;100.00;99330.22;5054755;28;20200;-53
2024/01/24 03:16:53;;;;;;;0.00;0.00;;;;;;;9.56;100.00;99338.16;5054681;28;20195;-53
2024/01/24 03:19:40;;;;;;;0.00;0.00;;;;;;;9.49;100.00;99331.50;5054418;28;20231;-53
2024/01/24 03:22:27;;;;;;;0.00;0.00;;;;;;;9.62;100.00;99333.34;5053485;28;20311;-53
2024/01/24 03:25:18;;;;;;;0.00;0.00;;;;;;;9.54;100.00;99324.16;5053268;28;20218;-53
2024/01/24 03:28:05;;;;;;;0.10;0.10;;;;;;;9.45;100.00;99320.22;5053996;28;20220;-53
2024/01/24 03:30:53;;;;;;;0.00;0.00;;;;;;;9.60;100.00;99324.66;5054340;28;20187;-53
2024/01/24 03:33:42;;;;;;;0.00;0.00;;;;;;;9.58;100.00;99304.53;5054454;28;20193;-53
2024/01/24 03:36:28;;;;;;;0.00;0.00;;;;;;;9.52;100.00;99308.38;5054247;28;20370;-53
2024/01/24 03:39:16;;;;;;;0.00;0.00;;;;;;;9.42;100.00;99313.34;5052976;28;20231;-53
2024/01/24 03:42:03;;;;;;;0.00;0.00;;;;;;;9.38;100.00;99314.47;5054228;28;20327;-53
2024/01/24 03:44:50;;;;;;;0.00;0.00;;;;;;;9.40;100.00;99299.34;5053535;28;20670;-53
2024/01/24 03:47:37;;;;;;;0.00;0.00;;;;;;;9.36;100.00;99292.56;5053663;28;20335;-53
2024/01/24 03:50:26;;;;;;;0.00;0.00;;;;;;;9.44;100.00;99287.66;5054134;28;20304;-53
2024/01/24 03:53:13;;;;;;;0.00;0.00;;;;;;;9.56;100.00;99299.34;5052976;28;20582;-53
2024/01/24 03:55:59;;;;;;;0.10;0.10;;;;;;;9.61;100.00;99286.69;5053927;28;20191;-53
2024/01/24 03:58:46;;;;;;;0.10;0.10;;;;;;;9.68;100.00;99292.47;5038701;28;20192;-53
2024/01/24 04:01:33;;;;;;;0.00;0.00;;;;;;;9.74;100.00;99286.81;5053911;28;20196;-53
2024/01/24 04:04:20;;;;;;;0.00;0.00;;;;;;;9.60;100.00;99290.28;5053505;28;20223;-53
2024/01/24 04:07:09;;;;;;;0.00;0.00;;;;;;;9.71;100.00;99289.66;5053334;28;20521;-53
2024/01/24 04:09:55;;;;;;;0.00;0.00;;;;;;;9.68;100.00;99277.47;5052269;28;20201;-53
2024/01/24 04:12:42;;;;;;;0.00;0.00;;;;;;;9.75;100.00;99297.34;5053606;28;20239;-53
2024/01/24 04:15:29;;;;;;;0.00;0.00;;;;;;;9.99;100.00;99273.84;5053629;28;20203;-53
2024/01/24 04:18:16;;;;;;;0.00;0.00;;;;;;;10.63;100.00;99276.22;5053306;28;20351;-53
2024/01/24 04:21:04;;;;;;;0.00;0.00;;;;;;;11.40;100.00;99257.94;5053595;28;20195;-53
2024/01/24 04:23:52;;;;;;;0.00;0.00;;;;;;;11.80;100.00;99247.38;5052051;28;20212;-53
2024/01/24 04:26:39;;;;;;;0.00;0.00;;;;;;;11.95;100.00;99234.84;5053253;28;20208;-53
2024/01/24 04:29:25;;;;;;;0.00;0.00;;;;;;;12.02;100.00;99230.81;5053397;28;20200;-54
2024/01/24 04:32:12;;;;;;;0.00;0.00;;;;;;;12.11;100.00;99213.41;5053177;28;20191;-53
2024/01/24 04:34:59;;;;;;;0.03;0.03;;;;;;;12.19;100.00;99201.31;5053206;28;20212;-53
2024/01/24 04:37:46;;;;;;;0.00;0.00;;;;;;;12.13;100.00;99203.53;5053091;28;20264;-53
2024/01/24 04:40:34;;;;;;;0.00;0.00;;;;;;;12.18;100.00;99193.44;5053149;28;20255;-53
2024/01/24 04:43:21;;;;;;;0.00;0.00;;;;;;;12.17;100.00;99199.72;5053070;28;20279;-53
2024/01/24 04:46:13;;;;;;;0.00;0.00;;;;;;;12.08;100.00;99190.59;5053045;28;20787;-53
2024/01/24 04:49:00;;;;;;;0.00;0.00;;;;;;;12.14;100.00;99173.34;5052635;28;20220;-53
2024/01/24 04:51:48;;;;;;;0.00;0.00;;;;;;;12.13;100.00;99161.03;5052821;28;20204;-53
2024/01/24 04:54:35;;;;;;;0.00;0.00;;;;;;;12.18;100.00;99164.25;5051417;28;20200;-53
2024/01/24 04:57:24;;;;;;;0.10;0.10;;;;;;;12.20;100.00;99165.81;5052792;28;20193;-53
2024/01/24 05:00:12;;;;;;;0.00;0.00;;;;;;;12.17;100.00;99176.66;5052905;28;20200;-53
2024/01/24 05:03:00;;;;;;;0.00;0.00;;;;;;;12.15;100.00;99197.16;5052682;28;20777;-53
2024/01/24 05:05:47;;;;;;;0.00;0.00;;;;;;;12.24;100.00;99161.97;5052737;28;20200;-53
2024/01/24 05:08:37;;;;;;;0.00;0.00;;;;;;;12.25;100.00;99181.41;5051164;28;20247;-53
2024/01/24 05:11:23;;;;;;;0.00;0.00;;;;;;;12.34;100.00;99167.47;5052828;28;20204;-53
2024/01/24 05:14:12;;;;;;;0.00;0.00;;;;;;;12.38;100.00;99158.34;5052535;28;20675;-53
2024/01/24 05:16:58;;;;;;;0.00;0.00;;;;;;;12.38;100.00;99184.06;5052713;28;20200;-53
2024/01/24 05:19:45;;;;;;;0.00;0.00;;;;;;;12.38;100.00;99158.34;5037485;28;20196;-54
2024/01/24 05:22:32;;;;;;;0.00;0.00;;;;;;;12.42;100.00;99145.69;5052512;28;20192;-53
2024/01/24 05:25:19;;;;;;;0.00;0.00;;;;;;;12.36;100.00;99152.31;5052233;28;20257;-53
2024/01/24 05:28:08;;;;;;;0.00;0.00;;;;;;;12.45;100.00;99150.78;5052341;28;20223;-54
2024/01/24 05:30:56;;;;;;;0.00;0.00;;;;;;;12.47;100.00;99138.25;5052447;28;20200;-53
2024/01/24 05:33:43;;;;;;;0.00;0.00;;;;;;;12.52;100.00;99136.09;5052643;28;20212;-53
2024/01/24 05:36:30;;;;;;;0.00;0.00;;;;;;;12.61;100.00;99135.44;5051846;28;20713;-53
2024/01/24 05:39:17;;;;;;;0.00;0.00;;;;;;;12.62;100.00;99134.47;5050773;28;20307;-53
2024/01/24 05:42:04;;;;;;;0.10;0.10;;;;;;;12.64;100.00;99135.19;5052537;28;20195;-53
2024/01/24 05:44:51;;;;;;;0.00;0.00;;;;;;;12.68;100.00;99134.03;5053012;28;20199;-53
2024/01/24 05:47:40;;;;;;;0.00;0.00;;;;;;;12.75;100.00;99158.38;5056106;28;20204;-54
2024/01/24 05:50:27;;;;;;;0.00;0.00;;;;;;;12.80;100.00;99169.50;5036284;28;20197;-53
2024/01/24 05:53:14;;;;;;;0.00;0.00;;;;;;;12.79;100.00;99154.50;5035054;28;20295;-53
2024/01/24 05:56:01;;;;;;;0.00;0.00;;;;;;;12.86;100.00;99163.75;5036193;28;20204;-53
2024/01/24 05:58:48;;;;;;;0.00;0.00;;;;;;;12.79;100.00;99159.81;5043556;28;20188;-54
2024/01/24 06:01:34;;;;;;;0.00;0.00;;;;;;;12.56;100.00;99158.84;5056107;28;20560;-53
2024/01/24 06:04:23;;;;;;;0.00;0.00;;;;;;;12.44;100.00;99192.44;5055579;28;20228;-54
2024/01/24 06:07:13;;;;;;;0.10;0.10;;;;;;;12.22;100.00;99157.75;5055997;28;20192;-54
2024/01/24 06:10:00;;;;;;;0.00;0.00;;;;;;;12.18;100.00;99166.88;5054624;28;20275;-54
2024/01/24 06:12:47;;;;;;;0.00;0.00;;;;;;;12.07;100.00;99186.22;5055556;28;20679;-53
2024/01/24 06:15:34;;;;;;;0.00;0.00;;;;;;;12.02;100.00;99188.34;5055749;28;20200;-53
2024/01/24 06:18:21;;;;;;;0.10;0.10;;;;;;;12.03;100.00;99201.50;5055739;28;20271;-53
2024/01/24 06:21:10;;;;;;;0.00;0.00;;;;;;;12.01;100.00;99202.56;5055641;28;20195;-53
2024/01/24 06:23:57;;;;;;;0.00;0.00;;;;;;;12.18;100.00;99201.41;5054451;28;20300;-53
2024/01/24 06:26:43;;;;;;;0.00;0.00;;;;;;;12.13;100.00;99195.56;5055441;28;20192;-54
2024/01/24 06:29:30;;;;;;;0.00;0.00;;;;;;;12.15;100.00;99175.06;5055238;28;20326;-54
2024/01/24 06:32:37;;;;;;;0.00;0.00;;;;;;;12.12;100.00;99189.41;5055525;28;20192;-53
2024/01/24 06:35:24;;;;;;;0.00;0.00;;;;;;;12.19;100.00;99205.75;5055438;28;20191;-54
2024/01/24 06:38:12;;;;;;;0.00;0.00;;;;;;;12.22;100.00;99197.56;5054053;28;20211;-54
2024/01/24 06:40:59;;;;;;;0.00;0.00;;;;;;;12.24;100.00;99211.59;5055511;28;20236;-53
2024/01/24 06:43:46;;;;;;;0.07;0.07;;;;;;;12.37;100.00;99227.53;5055286;28;20275;-53
2024/01/24 06:46:42;;;;;;;0.10;0.10;;;;;;;12.36;100.00;99231.16;5055275;28;20191;-53
2024/01/24 06:49:29;;;;;;;0.00;0.00;;;;;;;12.28;100.00;99213.94;5054779;28;20211;-53
2024/01/24 06:52:16;;;;;;;0.00;0.00;;;;;;;12.27;100.00;99212.25;5035065;28;20220;-54
2024/01/24 06:55:05;;;;;;;0.00;0.00;;;;;;;12.28;100.00;99202.47;5033904;28;20197;-53
2024/01/24 06:57:52;;;;;;;0.00;0.00;;;;;;;12.26;100.00;99241.56;5035092;28;20272;-53
2024/01/24 07:00:39;;;;;;;0.00;0.00;;;;;;;12.28;100.00;99231.69;5034896;28;20255;-53
2024/01/24 07:03:26;;;;;;;0.00;0.00;;;;;;;12.28;100.00;99229.03;5034833;28;20232;-54
2024/01/24 07:06:13;;;;;;;0.00;0.00;;;;;;;12.31;100.00;99242.94;5035042;28;20266;-54
2024/01/24 07:09:00;;;;;;;0.00;0.00;;;;;;;12.37;100.00;99203.63;5041184;28;20339;-53
2024/01/24 07:11:48;;;;;;;0.00;0.00;;;;;;;12.31;100.00;99175.69;5054780;28;20199;-54
2024/01/24 07:14:35;;;;;;;0.00;0.00;;;;;;;12.19;100.00;99168.59;5054756;28;20197;-53
2024/01/24 07:17:23;;;;;;;0.00;0.00;;;;;;;12.12;100.00;99201.81;5054430;28;20192;-53
2024/01/24 07:20:12;;;;;;;0.00;0.00;;;;;;;12.19;100.00;99176.56;5054794;28;20188;-53
2024/01/24 07:22:59;;;;;;;0.00;0.00;;;;;;;12.30;100.00;99176.63;5053344;28;20254;-53
2024/01/24 07:25:45;;;;;;;0.00;0.00;;;;;;;12.29;100.00;99169.63;5054211;28;20604;-53
2024/01/24 07:28:35;;;;;;;0.10;0.10;;;;;;;12.25;100.00;99131.81;5053933;28;20216;-54
2024/01/24 07:31:21;;;;;;;0.10;0.10;;;;;;;12.22;100.00;99174.53;5053233;28;20251;-54
2024/01/24 07:34:11;;;;;;;0.00;0.00;;;;;;;12.26;100.00;99172.53;5054320;28;20717;-54
2024/01/24 07:36:58;;;;;;;0.00;0.00;;;;;;;12.20;100.00;99168.47;5054176;28;20196;-54
2024/01/24 07:39:45;;;;;;;0.10;0.10;;;;;;;12.29;100.00;99186.41;5052897;28;20219;-53
2024/01/24 07:42:31;;;;;;;0.00;0.00;;;;;;;12.33;100.00;99190.53;5054035;28;20212;-54
2024/01/24 07:45:20;;;;;;;0.00;0.00;;;;;;;12.48;100.00;99179.81;5054246;28;20698;-53
2024/01/24 07:48:07;;;;;;;0.00;0.00;;;;;;;12.48;100.00;99195.75;5054140;28;20200;-53
2024/01/24 07:50:54;;;;;;;0.00;0.00;;;;;;;12.46;100.00;99210.94;5054010;28;20261;-53
2024/01/24 07:53:43;;;;;;;0.00;0.00;;;;;;;12.35;100.00;99210.81;5052759;28;20200;-53
2024/01/24 07:56:31;;;;;;;0.00;0.00;;;;;;;12.37;100.00;99211.59;5053694;28;20200;-54
2024/01/24 07:59:18;;;;;;;0.00;0.00;;;;;;;12.45;100.00;99206.56;5053571;28;20229;-53
2024/01/24 08:02:06;;;;;;;0.00;0.00;;;;;;;12.46;100.00;99210.94;5053903;28;20200;-53
2024/01/24 08:04:53;;;;;;;0.03;0.03;;;;;;;12.37;100.00;99179.72;5053075;28;20263;-53
2024/01/24 08:07:41;;;;;;;0.00;0.00;;;;;;;12.40;100.00;99229.97;5052971;28;20216;-53
2024/01/24 08:10:28;;;;;;;0.00;0.00;;;;;;;12.33;100.00;99218.91;5053507;28;20216;-54
2024/01/24 08:13:16;;;;;;;0.00;0.00;;;;;;;12.31;100.00;99229.66;5053536;28;20208;-53
2024/01/24 08:16:03;;;;;;;0.00;0.00;;;;;;;12.33;100.00;99235.69;5052839;28;20227;-53
2024/01/24 08:18:52;;;;;;;0.00;0.00;;;;;;;12.35;100.00;99240.03;5053302;28;20192;-54
2024/01/24 08:21:39;;;;;;;0.00;0.00;;;;;;;12.42;100.00;99222.72;5053413;28;20221;-53
2024/01/24 08:24:26;;;;;;;0.00;0.00;;;;;;;12.43;100.00;99240.38;5052124;28;20266;-53
2024/01/24 08:27:13;;;;;;;0.00;0.00;;;;;;;12.54;100.00;99230.66;5053594;28;20207;-53
2024/01/24 08:30:00;;;;;;;0.00;0.00;;;;;;;12.54;100.00;99248.41;5052768;28;20287;-54
2024/01/24 08:32:47;;;;;;;0.00;0.00;;;;;;;12.62;100.00;99230.13;5053214;28;20191;-53
2024/01/24 08:35:36;;;;;;;0.00;0.00;;;;;;;12.65;100.00;99237.06;5053044;28;20219;-54
2024/01/24 08:38:23;;;;;;;0.00;0.00;;;;;;;12.83;100.00;99256.97;5051896;28;20192;-53
2024/01/24 08:41:10;;;;;;;0.00;0.00;;;;;;;12.95;100.00;99273.88;5052977;28;20188;-53
2024/01/24 08:43:58;;;;;;;0.00;0.00;;;;;;;13.14;100.00;99258.28;5053069;28;20315;-54
2024/01/24 08:46:44;;;;;;;0.00;0.00;;;;;;;12.92;100.00;99269.63;5052620;28;20341;-54
2024/01/24 08:49:32;;;;;;;0.00;0.00;;;;;;;12.76;100.00;99271.69;5052826;28;20326;-53
2024/01/24 08:52:20;;;;;;;0.00;0.00;;;;;;;12.60;100.00;99278.06;5052475;28;20250;-54
2024/01/24 08:55:08;;;;;;;0.00;0.00;;;;;;;12.60;100.00;99288.72;5051695;28;20235;-53
2024/01/24 08:57:55;;;;;;;0.00;0.00;;;;;;;12.55;100.00;99292.66;5052458;28;20217;-53
2024/01/24 09:00:42;;;;;;;0.00;0.00;;;;;;;12.43;100.00;99293.50;5032617;28;20292;-54
2024/01/24 09:03:29;;;;;;;0.00;0.00;;;;;;;12.41;100.00;99304.22;5032482;28;20228;-53
2024/01/24 09:06:16;;;;;;;0.00;0.00;;;;;;;12.40;100.00;99294.56;5032950;28;20196;-53
2024/01/24 09:09:06;;;;;;;0.00;0.00;;;;;;;12.41;100.00;99296.25;5037816;28;20308;-53
2024/01/24 09:11:53;;;;;;;0.00;0.00;;;;;;;12.43;100.00;99334.19;5052624;28;20207;-53
2024/01/24 09:14:44;;;;;;;0.00;0.00;;;;;;;12.36;100.00;99326.78;5052594;28;20680;-53
2024/01/24 09:17:32;;;;;;;0.00;0.00;;;;;;;12.37;100.00;99326.66;5052635;28;20238;-53
2024/01/24 09:20:19;;;;;;;0.00;0.00;;;;;;;12.44;100.00;99351.81;5053238;28;20196;-54
2024/01/24 09:23:06;;;;;;;0.00;0.00;;;;;;;12.48;100.00;99340.06;5055475;28;20200;-54
2024/01/24 09:25:55;;;;;;;0.00;0.00;;;;;;;12.51;100.00;99338.97;5056330;28;20330;-53
2024/01/24 09:28:42;;;;;;;0.00;0.00;;;;;;;12.50;100.00;99351.41;5056522;28;20211;-53
2024/01/24 09:31:29;;;;;;;0.00;0.00;;;;;;;12.56;100.00;99352.81;5055292;28;20229;-53
2024/01/24 09:34:17;;;;;;;0.00;0.00;;;;;;;12.60;100.00;99338.34;5036696;28;20204;-53
2024/01/24 09:37:04;;;;;;;0.00;0.00;;;;;;;12.61;100.00;99370.13;5036165;28;20295;-53
2024/01/24 09:39:52;;;;;;;0.00;0.00;;;;;;;12.57;100.00;99341.22;5047836;28;20199;-53
2024/01/24 09:42:44;;;;;;;0.10;0.10;;;;;;;12.57;100.00;99354.50;5056085;28;20239;-53
2024/01/24 09:45:32;;;;;;;0.00;0.00;;;;;;;12.51;100.00;99389.47;5056296;28;20197;-53
2024/01/24 09:48:19;;;;;;;0.10;0.10;;;;;;;12.70;98.58;99362.47;5056042;28;20959;-53
2024/01/24 09:51:06;;;;;;;0.00;0.00;;;;;;;12.97;97.47;99383.63;5036052;28;20294;-53
2024/01/24 09:53:53;;;;;;;0.00;0.00;;;;;;;13.03;94.55;99361.94;5034427;28;20205;-53
2024/01/24 09:56:40;;;;;;;0.00;0.00;;;;;;;13.13;95.68;99373.63;5036124;28;20315;-53
2024/01/24 09:59:28;;;;;;;0.00;0.00;;;;;;;13.27;94.14;99385.97;5045089;28;20216;-53
2024/01/24 10:02:16;;;;;;;0.03;0.03;;;;;;;13.59;92.44;99373.81;5055900;28;20192;-53
2024/01/24 10:05:06;;;;;;;0.00;0.00;;;;;;;14.07;91.56;99371.16;5055734;28;20690;-52
2024/01/24 10:07:54;;;;;;;0.00;0.00;;;;;;;14.02;84.45;99363.53;5054521;28;20331;-53
2024/01/24 10:10:42;;;;;;;0.10;0.10;;;;;;;14.41;78.18;99357.97;5055166;28;20456;-53
2024/01/24 10:13:30;;;;;;;0.10;0.10;;;;;;;15.21;71.06;99360.59;5055856;28;20682;-54
2024/01/24 10:16:19;;;;;;;0.10;0.10;;;;;;;15.82;64.78;99375.19;5055619;28;20220;-54
2024/01/24 10:19:05;;;;;;;0.10;0.10;;;;;;;15.45;60.96;99334.63;5055675;28;20212;-54
2024/01/24 10:21:53;;;;;;;0.00;0.00;;;;;;;15.78;60.00;99339.03;5055521;28;20197;-53
2024/01/24 10:24:41;;;;;;;0.00;0.00;;;;;;;16.45;58.13;99372.63;5054443;28;20597;-54
2024/01/24 10:27:28;;;;;;;0.10;0.10;;;;;;;15.90;56.67;99378.09;5055530;28;20797;-54
2024/01/24 10:30:19;;;;;;;0.00;0.00;;;;;;;15.77;58.32;99398.78;5055353;28;20212;-53
2024/01/24 10:33:11;;;;;;;0.00;0.00;;;;;;;15.72;58.42;99399.13;5055175;28;20192;-53
2024/01/24 10:36:01;;;;;;;0.00;0.00;;;;;;;15.58;57.41;99415.41;5055252;28;20196;-53
2024/01/24 10:39:00;;;;;;;0.00;0.00;;;;;;;15.44;59.92;99419.19;5053775;28;20282;-53
2024/01/24 10:41:54;;;;;;;0.00;0.00;;;;;;;15.87;57.57;99417.59;5055214;28;20211;-54
2024/01/24 10:44:45;;;;;;;0.10;0.10;;;;;;;16.08;56.04;99388.25;5055173;28;20694;-53
2024/01/24 10:47:32;;;;;;;0.10;0.10;;;;;;;15.71;58.54;99420.63;5055247;28;20193;-53
2024/01/24 10:50:21;;;;;;;0.07;0.07;;;;;;;15.53;57.75;99406.06;5054836;28;20208;-54
2024/01/24 10:53:10;;;;;;;0.10;0.10;;;;;;;15.48;60.01;99421.63;5053898;28;20195;-53
2024/01/24 10:55:58;;;;;;;0.00;0.00;;;;;;;15.09;60.23;99435.31;5054655;28;20193;-54
2024/01/24 10:58:47;;;;;;;0.00;0.00;;;;;;;16.35;57.86;99439.41;5055113;28;20200;-54
2024/01/24 11:01:35;;;;;;;0.00;0.00;;;;;;;17.08;53.49;99402.88;5054836;28;20259;-53
2024/01/24 11:04:24;;;;;;;0.10;0.10;;;;;;;17.14;51.44;99431.81;5054696;28;20675;-53
2024/01/24 11:07:16;;;;;;;0.00;0.00;;;;;;;16.56;52.11;99424.22;5054939;28;20204;-54
2024/01/24 11:10:17;;;;;;;0.10;0.10;;;;;;;17.11;50.31;99408.84;5053447;28;20255;-54
2024/01/24 11:13:06;;;;;;;0.10;0.10;;;;;;;17.13;50.85;99448.84;5054537;28;20200;-53
2024/01/24 11:15:55;;;;;;;0.07;0.07;;;;;;;16.83;51.29;99446.97;5054399;28;20196;-53
2024/01/24 11:18:43;;;;;;;0.10;0.10;;;;;;;16.97;50.22;99427.91;5054408;28;20709;-53
2024/01/24 11:21:31;;;;;;;0.10;0.10;;;;;;;16.63;49.76;99445.13;5054365;28;20330;-54
2024/01/24 11:24:49;;;;;;;0.00;0.00;;;;;;;17.67;47.92;99439.66;5053151;28;20262;-53
2024/01/24 11:27:38;;;;;;;0.10;0.10;;;;;;;15.90;53.10;99444.03;5054373;28;20216;-54
2024/01/24 11:30:39;;;;;;;0.00;0.00;;;;;;;15.31;54.15;99420.28;5054118;28;20280;-54
2024/01/24 11:33:26;;;;;;;0.10;0.10;;;;;;;15.16;56.39;99441.03;5054286;28;20199;-54
2024/01/24 11:36:13;;;;;;;0.10;0.10;;;;;;;16.14;54.33;99434.03;5054293;28;20255;-54
2024/01/24 11:39:02;;;;;;;0.10;0.10;;;;;;;17.41;51.15;99463.38;5052472;28;20272;-54
2024/01/24 11:41:51;;;;;;;0.10;0.10;;;;;;;17.20;48.50;99465.25;5054270;28;20204;-54
2024/01/24 11:44:37;;;;;;;0.10;0.10;;;;;;;17.08;50.21;99461.75;5053771;28;20207;-54
2024/01/24 11:47:24;;;;;;;0.10;0.10;;;;;;;16.60;52.59;99473.81;5054186;28;20239;-54
2024/01/24 11:50:11;;;;;;;0.10;0.10;;;;;;;17.58;49.82;99475.28;5053873;28;20342;-54
2024/01/24 11:52:59;;;;;;;0.00;0.00;;;;;;;16.69;53.57;99485.59;5052727;28;20320;-54
2024/01/24 11:55:52;;;;;;;0.10;0.10;;;;;;;17.49;50.35;99486.81;5053848;28;20208;-54
2024/01/24 11:58:40;;;;;;;0.00;0.00;;;;;;;16.67;52.17;99479.50;5053959;28;20189;-54
2024/01/24 12:01:27;;;;;;;0.00;0.00;;;;;;;15.30;56.87;99487.97;5053699;28;20239;-54
2024/01/24 12:04:14;;;;;;;0.10;0.10;;;;;;;15.66;56.00;99485.13;5053570;28;20236;-54
2024/01/24 12:07:01;;;;;;;0.10;0.10;;;;;;;14.67;60.59;99499.94;5053433;28;20319;-53
2024/01/24 12:09:50;;;;;;;0.10;0.10;;;;;;;14.60;64.51;99513.75;5052423;28;20204;-54
2024/01/24 12:12:37;;;;;;;0.10;0.10;;;;;;;16.63;57.60;99514.66;5053160;28;20220;-53
2024/01/24 12:15:26;;;;;;;0.10;0.10;;;;;;;16.24;57.12;99507.13;5053806;28;20667;-54
2024/01/24 12:18:16;;;;;;;0.10;0.10;;;;;;;15.11;61.31;99496.56;5053444;28;20200;-54
2024/01/24 12:21:08;;;;;;;0.10;0.10;;;;;;;14.13;69.98;99511.06;5033744;28;20225;-54
2024/01/24 12:23:55;;;;;;;0.10;0.10;;;;;;;13.60;76.43;99503.28;5031785;28;20643;-53
2024/01/24 12:26:43;;;;;;;0.10;0.10;;;;;;;13.31;80.55;99513.31;5032552;28;20292;-53
2024/01/24 12:29:32;;;;;;;0.10;0.10;;;;;;;13.31;84.09;99541.72;5040480;28;20193;-53
2024/01/24 12:32:21;;;;;;;0.10;0.10;;;;;;;13.24;86.24;99541.31;5052609;28;20220;-54
2024/01/24 12:35:11;;;;;;;0.10;0.10;;;;;;;13.08;88.68;99546.78;5052645;28;20192;-53
2024/01/24 12:37:59;;;;;;;0.10;0.10;;;;;;;13.05;90.38;99547.00;5051439;28;20240;-54
2024/01/24 12:40:51;;;;;;;0.10;0.10;;;;;;;12.96;92.49;99555.63;5052236;28;20204;-53
2024/01/24 12:43:40;;;;;;;0.10;0.10;;;;;;;13.27;91.30;99561.53;5052689;28;20314;-54
2024/01/24 12:46:27;;;;;;;0.10;0.10;;;;;;;13.32;88.71;99565.59;5052490;28;20192;-53
2024/01/24 12:49:18;;;;;;;0.07;0.07;;;;;;;13.24;86.96;99559.94;5052565;28;20200;-53
2024/01/24 12:52:06;;;;;;;0.10;0.10;;;;;;;12.85;87.66;99555.50;5051941;28;20235;-53
2024/01/24 12:54:53;;;;;;;0.10;0.10;;;;;;;13.00;87.17;99559.75;5051474;28;20204;-54
2024/01/24 12:57:41;;;;;;;0.10;0.10;;;;;;;13.62;79.14;99561.75;5052634;28;20199;-52
2024/01/24 13:00:28;;;;;;;0.10;0.10;;;;;;;15.45;67.37;99546.38;5053004;28;20208;-53
2024/01/24 13:03:15;;;;;;;0.10;0.10;;;;;;;14.65;60.65;99580.06;5052509;28;20216;-53
2024/01/24 13:06:08;;;;;;;0.10;0.10;;;;;;;14.08;65.19;99567.31;5052935;28;20196;-54